Time;durP1;ratioP1;P1;durP2;ratioP2;P2;SDS_P1;SDS_P2;PMS_P1;PMS_P2;Temp;Humidity;BMP_temperature;BMP_pressure;BME280_temperature;BME280_humidity;BME280_pressure;Samples;Min_cycle;Max_cycle;Signal;HPM_P1;HPM_P2
2023/01/29 00:00:15;;;;;;;20.10;10.90;;;-0.70;99.90;;;;;;5074507;28;20794;-66
2023/01/29 00:02:41;;;;;;;11.90;8.93;;;-0.70;99.90;;;;;;5073559;28;20471;-65
2023/01/29 00:05:08;;;;;;;13.17;9.17;;;-0.70;99.90;;;;;;5074008;28;21003;-64
2023/01/29 00:07:35;;;;;;;13.80;9.00;;;-0.70;99.90;;;;;;5073614;28;21213;-66
2023/01/29 00:10:03;;;;;;;14.13;9.43;;;-0.70;99.90;;;;;;5074125;28;20456;-65
2023/01/29 00:12:30;;;;;;;16.50;9.13;;;-0.70;99.90;;;;;;5073985;28;20467;-66
2023/01/29 00:14:56;;;;;;;11.33;8.93;;;-0.70;99.90;;;;;;5070326;28;20799;-65
2023/01/29 00:17:23;;;;;;;16.33;9.23;;;-0.70;99.90;;;;;;5073679;28;20444;-65
2023/01/29 00:19:50;;;;;;;11.53;8.63;;;-0.70;99.90;;;;;;5073619;28;20448;-65
2023/01/29 00:22:16;;;;;;;15.33;8.90;;;-0.70;99.90;;;;;;5073585;28;20541;-65
2023/01/29 00:24:43;;;;;;;13.57;8.70;;;-0.70;99.90;;;;;;5073437;28;20510;-64
2023/01/29 00:27:11;;;;;;;13.50;9.13;;;-0.70;99.90;;;;;;5073414;28;20998;-64
2023/01/29 00:29:37;;;;;;;11.87;8.83;;;-0.70;99.90;;;;;;5073587;28;20501;-64
2023/01/29 00:32:04;;;;;;;11.87;8.30;;;-0.60;99.90;;;;;;5073395;28;20965;-64
2023/01/29 00:34:31;;;;;;;15.30;9.37;;;-0.70;99.90;;;;;;5072918;28;20894;-64
2023/01/29 00:37:03;;;;;;;14.77;9.10;;;-0.60;99.90;;;;;;5073671;28;20509;-65
2023/01/29 00:39:37;;;;;;;16.43;9.70;;;-0.70;99.90;;;;;;5073510;28;20464;-65
2023/01/29 00:44:58;;;;;;;10.00;7.90;;;-0.60;99.90;;;;;;5073095;28;20431;-64
2023/01/29 00:47:33;;;;;;;12.10;8.97;;;-0.60;99.90;;;;;;5073401;28;20624;-65
2023/01/29 00:50:00;;;;;;;17.50;9.73;;;-0.60;99.90;;;;;;5073175;28;20448;-65
2023/01/29 00:52:27;;;;;;;12.47;9.77;;;-0.60;99.90;;;;;;5073099;28;20474;-65
2023/01/29 00:54:55;;;;;;;12.20;9.47;;;-0.60;99.90;;;;;;5072628;28;20471;-64
2023/01/29 00:57:23;;;;;;;17.70;11.97;;;-0.60;99.90;;;;;;5073245;28;20444;-64
2023/01/29 00:59:51;;;;;;;17.80;11.83;;;-0.60;99.90;;;;;;5073221;28;20478;-66
2023/01/29 01:05:05;;;;;;;17.33;11.60;;;-0.60;99.90;;;;;;5065177;28;20511;-64
2023/01/29 01:07:31;;;;;;;15.60;10.70;;;-0.60;99.90;;;;;;5072221;28;22057;-64
2023/01/29 01:12:42;;;;;;;16.93;10.67;;;-0.60;99.90;;;;;;5072403;28;20986;-64
2023/01/29 01:15:11;;;;;;;14.43;9.47;;;-0.60;99.90;;;;;;5072458;28;20600;-64
2023/01/29 01:17:38;;;;;;;12.63;8.30;;;-0.70;99.90;;;;;;5072053;28;20452;-64
2023/01/29 01:20:05;;;;;;;11.87;8.50;;;-0.70;99.90;;;;;;5072289;28;20497;-64
2023/01/29 01:22:32;;;;;;;12.77;8.63;;;-0.80;99.90;;;;;;5072182;28;20475;-64
2023/01/29 01:24:59;;;;;;;12.37;8.63;;;-0.70;99.90;;;;;;5072332;28;20444;-64
2023/01/29 01:27:25;;;;;;;10.50;7.37;;;-0.80;99.90;;;;;;5072276;28;20476;-64
2023/01/29 01:29:52;;;;;;;13.33;8.00;;;-0.80;99.90;;;;;;5072299;28;20452;-63
2023/01/29 01:32:20;;;;;;;10.20;8.10;;;-0.80;99.90;;;;;;5071528;28;20501;-64
2023/01/29 01:34:46;;;;;;;12.83;8.97;;;-0.80;99.90;;;;;;5071395;28;20460;-64
2023/01/29 01:37:14;;;;;;;11.37;8.47;;;-0.80;99.90;;;;;;5072009;28;20452;-64
2023/01/29 01:39:40;;;;;;;10.20;8.90;;;-0.90;99.90;;;;;;5071175;28;20448;-64
2023/01/29 01:42:12;;;;;;;12.80;8.70;;;-0.80;99.90;;;;;;5071305;28;20472;-64
2023/01/29 01:44:59;;;;;;;12.13;9.10;;;-0.90;99.90;;;;;;5068833;28;20452;-64
2023/01/29 01:47:33;;;;;;;16.27;9.63;;;-0.90;99.90;;;;;;5071705;28;20487;-64
2023/01/29 01:50:05;;;;;;;14.80;9.43;;;-0.90;99.90;;;;;;5063420;28;20448;-64
2023/01/29 01:52:33;;;;;;;12.40;8.57;;;-0.90;99.90;;;;;;5071176;28;20507;-64
2023/01/29 01:55:00;;;;;;;13.73;9.50;;;-0.90;99.90;;;;;;5071222;28;20444;-64
2023/01/29 01:57:28;;;;;;;13.47;9.30;;;-0.90;99.90;;;;;;5071725;28;20537;-64
2023/01/29 01:59:59;;;;;;;19.10;10.10;;;-0.90;99.90;;;;;;5071753;28;20881;-64
2023/01/29 02:10:46;;;;;;;11.93;7.90;;;-1.00;99.90;;;;;;5071471;28;20986;-64
2023/01/29 02:13:16;;;;;;;12.57;9.20;;;-1.00;99.90;;;;;;5071519;28;20451;-64
2023/01/29 02:15:45;;;;;;;12.77;9.20;;;-1.10;99.90;;;;;;5071340;28;20456;-64
2023/01/29 02:18:14;;;;;;;14.40;9.67;;;-1.10;99.90;;;;;;5065139;28;20448;-65
2023/01/29 02:20:43;;;;;;;14.30;10.33;;;-1.10;99.90;;;;;;5071249;28;20460;-64
2023/01/29 02:23:42;;;;;;;18.50;10.50;;;-1.10;99.90;;;;;;5071436;28;20529;-64
2023/01/29 02:26:37;;;;;;;18.00;10.20;;;-1.00;99.90;;;;;;5071248;28;20447;-64
2023/01/29 02:29:22;;;;;;;13.60;9.60;;;-1.00;99.90;;;;;;5071441;28;21006;-64
2023/01/29 02:31:57;;;;;;;16.87;10.70;;;-1.00;99.90;;;;;;5071468;28;20559;-64
2023/01/29 02:37:26;;;;;;;15.03;10.10;;;-1.10;99.90;;;;;;5071598;28;20865;-64
2023/01/29 02:40:02;;;;;;;16.43;10.20;;;-1.10;99.90;;;;;;5071276;28;20502;-64
2023/01/29 02:42:36;;;;;;;14.07;9.70;;;-1.10;99.90;;;;;;5071426;28;20468;-65
2023/01/29 02:45:11;;;;;;;17.13;10.50;;;-1.10;99.90;;;;;;5062735;28;20539;-64
2023/01/29 02:47:44;;;;;;;19.40;11.87;;;-1.10;99.90;;;;;;5071288;28;20487;-64
2023/01/29 02:50:17;;;;;;;13.47;10.10;;;-1.10;99.90;;;;;;5070986;28;20451;-64
2023/01/29 02:52:50;;;;;;;17.20;10.90;;;-1.10;99.90;;;;;;5070748;28;20472;-64
2023/01/29 02:55:23;;;;;;;14.63;10.67;;;-1.10;99.90;;;;;;5070934;28;20448;-63
2023/01/29 02:57:55;;;;;;;17.67;11.90;;;-1.10;99.90;;;;;;5071191;28;20493;-65
2023/01/29 03:00:27;;;;;;;16.53;10.30;;;-1.10;99.90;;;;;;5071229;28;20506;-64
2023/01/29 03:02:59;;;;;;;15.80;10.97;;;-1.20;99.90;;;;;;5070895;28;20533;-65
2023/01/29 03:05:31;;;;;;;18.67;10.10;;;-1.20;99.90;;;;;;5073857;28;20452;-64
2023/01/29 03:08:02;;;;;;;16.63;10.83;;;-1.20;99.90;;;;;;5074895;28;20488;-64
2023/01/29 03:10:35;;;;;;;15.00;9.80;;;-1.20;99.90;;;;;;5075396;28;20525;-64
2023/01/29 03:13:05;;;;;;;16.90;10.90;;;-1.20;99.90;;;;;;5074917;28;20624;-63
2023/01/29 03:15:41;;;;;;;16.33;10.63;;;-1.30;99.90;;;;;;5075033;28;20532;-64
2023/01/29 03:18:11;;;;;;;17.53;10.40;;;-1.30;99.90;;;;;;5075112;28;20447;-64
2023/01/29 03:20:46;;;;;;;15.63;9.33;;;-1.30;99.90;;;;;;5074974;28;20932;-64
2023/01/29 03:23:36;;;;;;;17.80;10.03;;;-1.40;99.90;;;;;;5074562;28;20839;-64
2023/01/29 03:34:27;;;;;;;19.33;10.83;;;-1.50;99.90;;;;;;5072000;28;20430;-64
2023/01/29 03:36:58;;;;;;;19.43;10.90;;;-1.60;99.90;;;;;;5074029;28;20820;-65
2023/01/29 03:39:28;;;;;;;20.40;11.77;;;-1.60;99.90;;;;;;5074754;28;20440;-64
2023/01/29 03:42:00;;;;;;;25.13;12.10;;;-1.60;99.90;;;;;;5073958;28;21011;-65
2023/01/29 03:44:33;;;;;;;17.90;10.50;;;-1.70;99.90;;;;;;5074288;28;20451;-65
2023/01/29 03:47:12;;;;;;;20.80;11.70;;;-1.70;99.90;;;;;;5074158;28;21177;-64
2023/01/29 03:49:53;;;;;;;21.90;10.70;;;-1.70;99.90;;;;;;5074089;28;20574;-65
2023/01/29 03:52:25;;;;;;;13.90;9.43;;;-1.80;99.90;;;;;;5072409;28;20476;-64
2023/01/29 03:54:59;;;;;;;13.33;9.03;;;-1.80;99.90;;;;;;5073167;28;20869;-64
2023/01/29 03:57:32;;;;;;;15.30;9.80;;;-1.80;99.90;;;;;;5074177;28;20448;-64
2023/01/29 04:00:06;;;;;;;13.80;9.57;;;-1.80;99.90;;;;;;5074012;28;20880;-64
2023/01/29 04:02:42;;;;;;;14.50;9.83;;;-1.90;99.90;;;;;;5074002;28;20482;-65
2023/01/29 04:05:13;;;;;;;22.97;11.03;;;-1.90;99.90;;;;;;5073742;28;20448;-65
2023/01/29 04:07:43;;;;;;;13.83;9.40;;;-1.90;99.90;;;;;;5073659;28;20452;-64
2023/01/29 04:10:15;;;;;;;14.60;9.57;;;-1.90;99.90;;;;;;5073804;28;21001;-64
2023/01/29 04:12:46;;;;;;;15.47;10.00;;;-1.90;99.90;;;;;;5073664;28;20468;-64
2023/01/29 04:15:16;;;;;;;13.80;9.40;;;-1.90;99.90;;;;;;5073476;28;20447;-64
2023/01/29 04:17:49;;;;;;;14.53;9.67;;;-1.90;99.90;;;;;;5073497;28;21360;-64
2023/01/29 04:20:17;;;;;;;14.93;9.63;;;-2.00;99.90;;;;;;5073659;28;20459;-64
2023/01/29 04:22:47;;;;;;;18.60;10.10;;;-2.10;99.90;;;;;;5072534;28;20479;-64
2023/01/29 04:25:17;;;;;;;16.20;10.23;;;-2.10;99.90;;;;;;5073293;28;20513;-64
2023/01/29 04:27:52;;;;;;;14.87;10.23;;;-2.20;99.90;;;;;;5073224;28;20440;-64
2023/01/29 04:30:26;;;;;;;14.10;10.00;;;-2.20;99.90;;;;;;5073334;28;20923;-64
2023/01/29 04:33:05;;;;;;;13.60;9.37;;;-2.30;99.90;;;;;;5073321;28;20551;-64
2023/01/29 04:35:37;;;;;;;12.70;9.00;;;-2.30;99.90;;;;;;5072948;28;20502;-64
2023/01/29 04:38:11;;;;;;;11.90;8.57;;;-2.40;99.90;;;;;;5073177;28;20456;-65
2023/01/29 04:40:49;;;;;;;14.63;9.40;;;-2.50;99.90;;;;;;5073208;28;20440;-64
2023/01/29 04:43:24;;;;;;;18.03;9.40;;;-2.40;99.90;;;;;;5073419;28;20447;-65
2023/01/29 04:46:01;;;;;;;14.47;9.90;;;-2.50;99.90;;;;;;5072967;28;20493;-64
2023/01/29 04:48:35;;;;;;;14.20;8.83;;;-2.50;99.90;;;;;;5073191;28;20521;-65
2023/01/29 04:51:10;;;;;;;13.40;9.10;;;-2.50;99.90;;;;;;5072320;28;20508;-65
2023/01/29 04:53:43;;;;;;;14.83;9.17;;;-2.50;99.90;;;;;;5073053;28;20454;-65
2023/01/29 04:56:15;;;;;;;12.40;9.40;;;-2.50;99.90;;;;;;5073029;28;20493;-64
2023/01/29 04:58:47;;;;;;;11.53;9.00;;;-2.50;99.90;;;;;;5073183;28;20448;-65
2023/01/29 05:01:16;;;;;;;16.17;9.80;;;-2.40;99.90;;;;;;5072665;28;20895;-64
2023/01/29 05:03:47;;;;;;;15.50;10.13;;;-2.40;99.90;;;;;;5072774;28;20525;-65
2023/01/29 05:06:16;;;;;;;13.53;8.90;;;-2.40;99.90;;;;;;5067631;28;20452;-64
2023/01/29 05:08:44;;;;;;;13.83;9.03;;;-2.40;99.90;;;;;;5073126;28;20532;-65
2023/01/29 05:11:11;;;;;;;12.60;9.10;;;-2.40;99.90;;;;;;5072982;28;20521;-65
2023/01/29 05:13:41;;;;;;;14.40;9.70;;;-2.40;99.90;;;;;;5072766;28;20509;-64
2023/01/29 05:16:14;;;;;;;15.70;9.30;;;-2.50;99.90;;;;;;5073088;28;20448;-65
2023/01/29 05:18:41;;;;;;;15.37;10.27;;;-2.40;99.90;;;;;;5073196;28;20792;-65
2023/01/29 05:21:09;;;;;;;17.07;10.43;;;-2.40;99.90;;;;;;5072274;28;20488;-65
2023/01/29 05:23:36;;;;;;;17.40;10.13;;;-2.40;99.90;;;;;;5072453;28;20927;-65
2023/01/29 05:26:04;;;;;;;14.67;9.60;;;-2.40;99.90;;;;;;5072351;28;20866;-65
2023/01/29 05:28:30;;;;;;;14.27;10.37;;;-2.40;99.90;;;;;;5072227;28;20491;-64
2023/01/29 05:30:57;;;;;;;19.53;11.40;;;-2.40;99.90;;;;;;5072399;28;20502;-65
2023/01/29 05:33:25;;;;;;;16.27;10.17;;;-2.40;99.90;;;;;;5072687;28;20455;-65
2023/01/29 05:35:52;;;;;;;12.63;9.30;;;-2.40;99.90;;;;;;5072431;28;20448;-65
2023/01/29 05:38:21;;;;;;;15.00;10.23;;;-2.30;99.90;;;;;;5072291;28;20448;-65
2023/01/29 05:40:47;;;;;;;11.90;9.03;;;-2.30;99.90;;;;;;5072042;28;20452;-63
2023/01/29 05:43:17;;;;;;;23.00;12.10;;;-2.30;99.90;;;;;;5071980;28;20452;-65
2023/01/29 05:45:51;;;;;;;12.67;9.63;;;-2.30;99.90;;;;;;5072162;28;20549;-65
2023/01/29 05:48:17;;;;;;;15.67;9.50;;;-2.40;99.90;;;;;;5072379;28;20910;-65
2023/01/29 05:50:44;;;;;;;13.50;9.20;;;-2.30;99.90;;;;;;5071481;28;20505;-64
2023/01/29 05:53:11;;;;;;;14.57;9.83;;;-2.30;99.90;;;;;;5071914;28;20991;-65
2023/01/29 05:55:39;;;;;;;13.70;9.87;;;-2.30;99.90;;;;;;5071883;28;20448;-65
2023/01/29 05:58:05;;;;;;;14.73;9.83;;;-2.30;99.90;;;;;;5071631;28;20990;-65
2023/01/29 06:00:32;;;;;;;23.50;10.00;;;-2.30;99.90;;;;;;5071741;28;20452;-64
2023/01/29 06:02:59;;;;;;;15.23;9.63;;;-2.30;99.90;;;;;;5071936;28;20468;-64
2023/01/29 06:05:25;;;;;;;20.93;10.07;;;-2.30;99.90;;;;;;5071390;28;20935;-65
2023/01/29 06:07:52;;;;;;;12.20;8.70;;;-2.30;99.90;;;;;;5071918;28;20456;-65
2023/01/29 06:10:19;;;;;;;17.97;10.13;;;-2.30;99.90;;;;;;5071364;28;20999;-65
2023/01/29 06:12:47;;;;;;;15.63;10.23;;;-2.20;99.90;;;;;;5071339;28;20501;-64
2023/01/29 06:15:15;;;;;;;16.97;10.20;;;-2.30;99.90;;;;;;5063515;28;20947;-64
2023/01/29 06:17:42;;;;;;;13.90;9.40;;;-2.30;99.90;;;;;;5071851;28;20444;-64
2023/01/29 06:20:10;;;;;;;17.67;10.20;;;-2.30;99.90;;;;;;5071554;28;20440;-65
2023/01/29 06:22:36;;;;;;;15.00;9.50;;;-2.30;99.90;;;;;;5071934;28;20530;-64
2023/01/29 06:25:03;;;;;;;17.57;11.17;;;-2.30;99.90;;;;;;5071339;28;20456;-65
2023/01/29 06:27:30;;;;;;;20.47;11.00;;;-2.30;99.90;;;;;;5071506;28;20478;-64
2023/01/29 06:29:58;;;;;;;18.80;11.10;;;-2.30;99.90;;;;;;5071692;28;20557;-65
2023/01/29 06:32:25;;;;;;;22.53;11.60;;;-2.30;99.90;;;;;;5070380;28;20498;-65
2023/01/29 06:34:52;;;;;;;19.60;11.20;;;-2.20;99.90;;;;;;5071469;28;20854;-64
2023/01/29 06:37:19;;;;;;;19.50;11.60;;;-2.20;99.90;;;;;;5071573;28;20928;-64
2023/01/29 06:39:45;;;;;;;21.97;12.37;;;-2.20;99.90;;;;;;5070759;28;20447;-64
2023/01/29 06:42:12;;;;;;;22.40;12.87;;;-2.20;99.90;;;;;;5071048;28;20536;-64
2023/01/29 06:44:38;;;;;;;19.27;11.47;;;-2.20;99.90;;;;;;5071279;28;20440;-64
2023/01/29 06:47:06;;;;;;;21.83;12.43;;;-2.20;99.90;;;;;;5071088;28;20456;-64
2023/01/29 06:49:33;;;;;;;33.03;15.67;;;-2.20;99.90;;;;;;5070717;28;21004;-66
2023/01/29 06:51:59;;;;;;;23.60;14.13;;;-2.20;99.90;;;;;;5071299;28;20468;-67
2023/01/29 06:54:26;;;;;;;19.17;11.90;;;-2.20;99.90;;;;;;5071156;28;20444;-67
2023/01/29 06:56:53;;;;;;;22.07;11.60;;;-2.30;99.90;;;;;;5071230;28;20521;-66
2023/01/29 06:59:19;;;;;;;18.03;11.50;;;-2.30;99.90;;;;;;5071074;28;20932;-66
2023/01/29 07:01:46;;;;;;;22.00;11.40;;;-2.40;99.90;;;;;;5071310;28;20467;-66
2023/01/29 07:04:14;;;;;;;21.00;13.07;;;-2.40;99.90;;;;;;5070656;28;21006;-66
2023/01/29 07:06:40;;;;;;;23.47;12.77;;;-2.40;99.90;;;;;;5071145;28;20506;-66
2023/01/29 07:09:07;;;;;;;24.73;12.93;;;-2.40;99.90;;;;;;5071115;28;20549;-66
2023/01/29 07:11:36;;;;;;;22.40;12.60;;;-2.50;99.90;;;;;;5071309;28;20526;-66
2023/01/29 07:14:03;;;;;;;21.57;12.57;;;-2.50;99.90;;;;;;5070815;28;20905;-66
2023/01/29 07:16:30;;;;;;;25.73;13.60;;;-2.50;99.90;;;;;;5071190;28;20452;-65
2023/01/29 07:18:56;;;;;;;21.50;12.63;;;-2.50;99.90;;;;;;5070806;28;20510;-65
2023/01/29 07:21:24;;;;;;;24.37;12.80;;;-2.50;99.90;;;;;;5070983;28;20487;-66
2023/01/29 07:23:51;;;;;;;26.63;13.20;;;-2.60;99.90;;;;;;5070779;28;20452;-65
2023/01/29 07:26:18;;;;;;;22.33;12.47;;;-2.60;99.90;;;;;;5070264;28;20510;-66
2023/01/29 07:28:44;;;;;;;24.00;13.50;;;-2.60;99.90;;;;;;5070639;28;20514;-66
2023/01/29 07:31:13;;;;;;;21.70;12.93;;;-2.60;99.90;;;;;;5071064;28;21271;-66
2023/01/29 07:33:40;;;;;;;26.07;14.23;;;-2.60;99.90;;;;;;5070349;28;20456;-66
2023/01/29 07:36:08;;;;;;;22.97;13.00;;;-2.70;99.90;;;;;;5071132;28;20448;-66
2023/01/29 07:38:36;;;;;;;25.00;14.20;;;-2.70;99.90;;;;;;5070368;28;20881;-66
2023/01/29 07:41:02;;;;;;;22.40;13.53;;;-2.60;99.90;;;;;;5068758;28;20452;-66
2023/01/29 07:43:29;;;;;;;28.87;14.60;;;-2.50;99.90;;;;;;5068636;28;20497;-66
2023/01/29 07:45:56;;;;;;;24.57;13.50;;;-2.30;99.90;;;;;;5069029;28;20592;-66
2023/01/29 07:48:22;;;;;;;24.40;13.10;;;-2.10;99.90;;;;;;5069080;28;21199;-66
2023/01/29 07:50:54;;;;;;;22.13;13.33;;;-2.00;99.90;;;;;;5070164;28;20534;-66
2023/01/29 07:53:21;;;;;;;21.93;12.67;;;-1.90;99.90;;;;;;5073861;28;20526;-66
2023/01/29 07:55:49;;;;;;;23.83;13.73;;;-2.00;99.90;;;;;;5074311;28;20501;-67
2023/01/29 07:58:16;;;;;;;26.60;14.43;;;-2.00;99.90;;;;;;5074180;28;20444;-67
2023/01/29 08:00:43;;;;;;;27.90;14.60;;;-2.00;99.90;;;;;;5074440;28;20485;-66
2023/01/29 08:03:11;;;;;;;28.37;13.87;;;-2.00;99.90;;;;;;5074162;28;20460;-67
2023/01/29 08:05:38;;;;;;;30.20;15.10;;;-2.10;99.90;;;;;;5073798;28;20502;-66
2023/01/29 08:08:05;;;;;;;33.10;15.73;;;-2.10;99.90;;;;;;5074105;28;20452;-66
2023/01/29 08:10:32;;;;;;;30.60;15.37;;;-2.20;99.90;;;;;;5074076;28;20488;-68
2023/01/29 08:13:01;;;;;;;28.63;14.20;;;-2.20;99.90;;;;;;5073516;28;20471;-67
2023/01/29 08:15:29;;;;;;;31.97;17.10;;;-2.20;99.90;;;;;;5076037;28;20448;-66
2023/01/29 08:17:56;;;;;;;32.22;17.48;;;-2.20;99.90;;;;;;5073370;28;20988;-67
2023/01/29 08:20:23;;;;;;;27.93;15.10;;;-2.00;99.90;;;;;;5075822;28;20202;-67
2023/01/29 08:22:50;;;;;;;30.83;15.87;;;-1.80;99.90;;;;;;5073002;28;20541;-67
2023/01/29 08:25:16;;;;;;;26.90;13.23;;;-1.50;99.90;;;;;;5073150;28;20447;-66
2023/01/29 08:27:43;;;;;;;30.87;15.70;;;-1.30;99.90;;;;;;5073148;28;20510;-67
2023/01/29 08:30:12;;;;;;;29.10;16.13;;;-1.00;99.90;;;;;;5073300;28;20835;-67
2023/01/29 08:32:39;;;;;;;30.67;16.97;;;-0.60;99.90;;;;;;5072336;28;20475;-67
2023/01/29 08:35:06;;;;;;;30.53;15.50;;;-0.10;99.90;;;;;;5072894;28;20883;-67
2023/01/29 08:37:32;;;;;;;37.03;17.77;;;0.00;99.90;;;;;;5072803;28;20509;-67
2023/01/29 08:39:59;;;;;;;30.50;15.00;;;0.00;99.90;;;;;;5073193;28;20510;-67
2023/01/29 08:42:26;;;;;;;30.70;15.47;;;-0.10;99.90;;;;;;5073018;28;20541;-67
2023/01/29 08:44:52;;;;;;;31.27;15.57;;;-0.20;99.90;;;;;;5072234;28;20524;-66
2023/01/29 08:47:20;;;;;;;32.03;16.53;;;-0.30;99.90;;;;;;5072733;28;20860;-66
2023/01/29 08:49:47;;;;;;;34.03;19.80;;;-0.40;99.90;;;;;;5067872;28;20483;-67
2023/01/29 08:52:14;;;;;;;40.20;23.57;;;-0.50;99.90;;;;;;5072577;28;21025;-67
2023/01/29 08:54:40;;;;;;;38.70;23.73;;;-0.60;99.90;;;;;;5072907;28;20448;-68
2023/01/29 08:57:07;;;;;;;38.80;21.53;;;-0.60;99.90;;;;;;5072454;28;20455;-67
2023/01/29 08:59:33;;;;;;;39.83;20.20;;;-0.60;99.90;;;;;;5072373;28;20474;-67
2023/01/29 09:02:00;;;;;;;35.50;19.87;;;-0.60;99.90;;;;;;5071722;28;20472;-67
2023/01/29 09:04:28;;;;;;;38.43;21.07;;;-0.60;99.90;;;;;;5071884;28;20948;-67
2023/01/29 09:06:54;;;;;;;37.50;18.77;;;-0.60;99.90;;;;;;5069330;28;20452;-67
2023/01/29 09:09:21;;;;;;;37.30;17.30;;;-0.60;99.90;;;;;;5071806;28;20542;-67
2023/01/29 09:11:48;;;;;;;40.10;19.60;;;-0.60;99.90;;;;;;5071856;28;20475;-66
2023/01/29 09:14:15;;;;;;;40.27;18.40;;;-0.50;99.90;;;;;;5072190;28;20460;-66
2023/01/29 09:16:41;;;;;;;29.20;16.60;;;-0.50;99.90;;;;;;5072619;28;20774;-67
2023/01/29 09:19:08;;;;;;;36.17;18.67;;;-0.40;99.90;;;;;;5071750;28;20488;-66
2023/01/29 09:21:36;;;;;;;34.40;16.83;;;-0.40;99.90;;;;;;5071906;28;20480;-66
2023/01/29 09:24:03;;;;;;;34.77;18.13;;;-0.40;99.90;;;;;;5071903;28;20502;-66
2023/01/29 09:26:30;;;;;;;34.40;17.50;;;-0.40;99.90;;;;;;5072319;28;20464;-67
2023/01/29 09:28:56;;;;;;;36.70;18.60;;;-0.40;99.90;;;;;;5071942;28;20455;-66
2023/01/29 09:31:23;;;;;;;33.43;18.47;;;-0.40;99.90;;;;;;5071453;28;20487;-67
2023/01/29 09:33:49;;;;;;;38.03;18.37;;;-0.30;99.90;;;;;;5070682;28;20452;-66
2023/01/29 09:36:16;;;;;;;40.70;19.77;;;-0.30;99.90;;;;;;5072058;28;20831;-66
2023/01/29 09:38:44;;;;;;;43.93;21.10;;;-0.30;99.90;;;;;;5070637;28;20502;-66
2023/01/29 09:41:26;;;;;;;43.33;20.90;;;-0.20;99.90;;;;;;5071537;28;20529;-67
2023/01/29 09:43:57;;;;;;;44.03;20.00;;;-0.20;99.90;;;;;;5071021;28;20451;-66
2023/01/29 09:46:27;;;;;;;35.10;18.50;;;-0.20;99.90;;;;;;5071538;28;20862;-66
2023/01/29 09:49:00;;;;;;;42.03;21.43;;;-0.20;99.90;;;;;;5069499;28;20521;-66
2023/01/29 09:51:31;;;;;;;45.47;21.80;;;-0.20;99.90;;;;;;5067162;28;20572;-67
2023/01/29 09:54:13;;;;;;;50.83;23.23;;;-0.10;99.90;;;;;;5071101;28;20460;-67
2023/01/29 09:56:41;;;;;;;42.00;21.63;;;-0.10;99.90;;;;;;5065637;28;20947;-67
2023/01/29 09:59:11;;;;;;;47.93;23.03;;;-0.10;99.90;;;;;;5070845;28;20513;-67
2023/01/29 10:01:48;;;;;;;44.33;23.33;;;-0.10;99.90;;;;;;5070705;28;20479;-67
2023/01/29 10:04:41;;;;;;;48.97;24.27;;;-0.10;99.90;;;;;;5071433;28;20456;-67
2023/01/29 10:07:25;;;;;;;43.20;21.70;;;-0.10;99.90;;;;;;5070480;28;20955;-67
2023/01/29 10:10:25;;;;;;;45.93;20.70;;;0.00;99.90;;;;;;5070918;28;21096;-67
2023/01/29 10:13:01;;;;;;;44.73;21.40;;;0.20;99.90;;;;;;5066827;28;20468;-67
2023/01/29 10:15:50;;;;;;;44.20;21.20;;;0.30;99.90;;;;;;5070026;28;20450;-67
2023/01/29 10:18:34;;;;;;;48.60;22.77;;;0.30;99.90;;;;;;5071571;28;20448;-67
2023/01/29 10:21:11;;;;;;;39.37;20.00;;;0.70;99.90;;;;;;5070553;28;21013;-67
2023/01/29 10:23:42;;;;;;;37.13;19.50;;;1.10;99.90;;;;;;5064776;28;20447;-67
2023/01/29 10:26:12;;;;;;;39.80;20.90;;;1.50;99.90;;;;;;5070842;28;21037;-66
2023/01/29 10:28:44;;;;;;;40.37;21.03;;;1.50;99.90;;;;;;5070952;28;20460;-67
2023/01/29 10:31:17;;;;;;;42.53;20.13;;;1.40;99.90;;;;;;5070007;28;20483;-67
2023/01/29 10:33:50;;;;;;;35.13;17.93;;;1.20;99.90;;;;;;5070565;28;20460;-66
2023/01/29 10:36:21;;;;;;;43.20;20.37;;;0.90;99.90;;;;;;5071032;28;20505;-67
2023/01/29 10:38:49;;;;;;;46.30;20.53;;;0.70;99.90;;;;;;5070416;28;20456;-67
2023/01/29 10:41:37;;;;;;;38.80;19.30;;;0.60;99.90;;;;;;5071140;28;20533;-66
2023/01/29 10:44:20;;;;;;;41.00;21.63;;;0.60;99.90;;;;;;5070471;28;20451;-67
2023/01/29 10:47:00;;;;;;;38.30;17.73;;;0.60;99.90;;;;;;5067358;28;20456;-67
2023/01/29 10:49:41;;;;;;;38.87;19.50;;;0.40;99.90;;;;;;5069587;28;20510;-67
2023/01/29 10:52:28;;;;;;;34.50;18.67;;;0.40;99.90;;;;;;5068275;28;20861;-67
2023/01/29 10:55:05;;;;;;;40.60;19.13;;;0.60;99.90;;;;;;5070313;28;20467;-67
2023/01/29 10:57:52;;;;;;;36.97;19.07;;;0.70;99.90;;;;;;5063280;28;20532;-66
2023/01/29 11:00:22;;;;;;;30.90;16.57;;;0.80;99.90;;;;;;5069701;28;20526;-66
2023/01/29 11:02:50;;;;;;;31.83;17.50;;;1.00;99.90;;;;;;5070309;28;20475;-65
2023/01/29 11:05:24;;;;;;;36.90;18.40;;;0.80;99.90;;;;;;5069684;28;21017;-66
2023/01/29 11:08:01;;;;;;;41.00;18.70;;;0.80;99.90;;;;;;5071040;28;20456;-65
2023/01/29 11:10:29;;;;;;;34.90;18.87;;;0.90;99.90;;;;;;5065438;28;20480;-66
2023/01/29 11:12:58;;;;;;;31.70;17.10;;;1.00;99.90;;;;;;5065281;28;20468;-66
2023/01/29 11:15:29;;;;;;;35.00;18.10;;;1.00;99.90;;;;;;5066292;28;20444;-67
2023/01/29 11:18:04;;;;;;;37.50;19.17;;;0.90;99.90;;;;;;5066020;28;20524;-66
2023/01/29 11:20:32;;;;;;;33.20;17.70;;;1.10;99.90;;;;;;5066630;28;20940;-66
2023/01/29 11:22:59;;;;;;;36.57;18.67;;;1.00;99.90;;;;;;5065717;28;20537;-66
2023/01/29 11:25:27;;;;;;;35.77;18.47;;;1.10;99.90;;;;;;5069921;28;20452;-67
2023/01/29 11:27:55;;;;;;;42.23;19.50;;;1.10;99.90;;;;;;5073358;28;20491;-65
2023/01/29 11:30:26;;;;;;;35.73;19.10;;;1.20;99.90;;;;;;5073594;28;20526;-66
2023/01/29 11:33:10;;;;;;;28.53;16.50;;;1.30;99.90;;;;;;5073142;28;20476;-66
2023/01/29 11:35:37;;;;;;;32.10;16.63;;;1.40;99.90;;;;;;5074033;28;20501;-67
2023/01/29 11:38:18;;;;;;;29.70;16.40;;;1.40;99.90;;;;;;5074595;28;20955;-66
2023/01/29 11:40:45;;;;;;;31.73;16.77;;;1.50;99.90;;;;;;5073502;28;20450;-68
2023/01/29 11:43:17;;;;;;;32.33;16.07;;;1.50;99.90;;;;;;5073933;28;20452;-66
2023/01/29 11:45:46;;;;;;;27.40;16.60;;;1.30;99.90;;;;;;5070285;28;20524;-67
2023/01/29 11:48:16;;;;;;;34.37;14.97;;;1.10;99.90;;;;;;5073623;28;20459;-67
2023/01/29 11:50:44;;;;;;;35.00;17.80;;;1.00;99.90;;;;;;5074104;28;20487;-67
2023/01/29 11:53:35;;;;;;;33.90;18.43;;;0.80;99.90;;;;;;5073741;28;20503;-66
2023/01/29 11:56:15;;;;;;;34.20;17.47;;;0.70;99.90;;;;;;5073909;28;20448;-67
2023/01/29 11:58:43;;;;;;;34.27;18.57;;;0.80;99.90;;;;;;5072721;28;20455;-66
2023/01/29 12:01:11;;;;;;;44.80;20.47;;;1.10;99.90;;;;;;5072942;28;20502;-67
2023/01/29 12:03:43;;;;;;;137.40;40.43;;;1.10;99.90;;;;;;5073708;28;20451;-66
2023/01/29 12:06:18;;;;;;;40.43;17.50;;;1.10;99.90;;;;;;5074051;28;20451;-67
2023/01/29 12:08:44;;;;;;;29.00;16.27;;;1.20;99.90;;;;;;5067979;28;20497;-67
2023/01/29 12:11:14;;;;;;;36.80;18.37;;;1.20;99.90;;;;;;5072994;28;20909;-67
2023/01/29 12:13:42;;;;;;;28.67;15.50;;;1.30;99.90;;;;;;5073493;28;20810;-67
2023/01/29 12:16:19;;;;;;;32.30;16.10;;;1.40;99.90;;;;;;5072625;28;20455;-67
2023/01/29 12:18:50;;;;;;;36.83;18.50;;;1.70;99.90;;;;;;5067901;28;20521;-68
2023/01/29 12:21:22;;;;;;;33.50;18.33;;;1.90;99.90;;;;;;5072978;28;20987;-67
2023/01/29 12:23:56;;;;;;;34.73;18.07;;;2.00;99.90;;;;;;5070649;28;20455;-67
2023/01/29 12:26:29;;;;;;;32.70;17.10;;;1.90;99.90;;;;;;5072632;28;20901;-67
2023/01/29 12:29:18;;;;;;;33.40;17.57;;;1.80;99.90;;;;;;5073286;28;20447;-67
2023/01/29 12:31:54;;;;;;;28.73;14.17;;;1.70;99.90;;;;;;5067285;28;20487;-68
2023/01/29 12:34:30;;;;;;;33.03;16.93;;;1.60;99.90;;;;;;5071989;28;20451;-67
2023/01/29 12:37:04;;;;;;;36.93;17.70;;;1.30;99.90;;;;;;5071853;28;20452;-68
2023/01/29 12:39:31;;;;;;;35.53;16.47;;;1.20;99.90;;;;;;5065574;28;20452;-67
2023/01/29 12:42:02;;;;;;;30.50;15.70;;;1.10;99.90;;;;;;5072650;28;20468;-67
2023/01/29 12:44:35;;;;;;;38.90;18.07;;;0.90;99.90;;;;;;5073200;28;20448;-68
2023/01/29 12:47:07;;;;;;;34.30;17.37;;;1.10;99.90;;;;;;5072921;28;20458;-68
2023/01/29 12:49:38;;;;;;;40.00;17.57;;;1.10;99.90;;;;;;5072968;28;20460;-67
2023/01/29 12:52:12;;;;;;;33.20;17.40;;;1.50;99.90;;;;;;5069133;28;20992;-66
2023/01/29 12:54:42;;;;;;;47.47;16.23;;;1.60;99.90;;;;;;5071052;28;20470;-67
2023/01/29 12:57:17;;;;;;;29.27;14.80;;;1.70;99.90;;;;;;5072448;28;20940;-68
2023/01/29 12:59:49;;;;;;;27.60;14.97;;;1.80;99.90;;;;;;5072256;28;20456;-67
2023/01/29 13:02:30;;;;;;;28.20;14.00;;;1.80;99.90;;;;;;5072518;28;20468;-67
2023/01/29 13:05:02;;;;;;;29.57;15.00;;;1.80;99.90;;;;;;5068189;28;20506;-67
2023/01/29 13:07:32;;;;;;;30.13;14.87;;;2.00;99.90;;;;;;5068963;28;20488;-68
2023/01/29 13:10:07;;;;;;;29.23;15.63;;;2.30;99.90;;;;;;5070461;28;20452;-67
2023/01/29 13:12:36;;;;;;;27.00;16.53;;;2.40;99.90;;;;;;5071787;28;20487;-68
2023/01/29 13:15:09;;;;;;;30.43;16.70;;;2.80;99.90;;;;;;5072138;28;20460;-68
2023/01/29 13:17:42;;;;;;;29.87;15.80;;;3.20;99.90;;;;;;5069414;28;20448;-67